Latest Weather Observations for Gingin Airport

IDW60801

Issued at 9:32 am WST Tuesday 4 August 2015 (issued every 30 minutes, with the page automatically refreshed every 10 minutes)

About weather observations | Map of weather stations | Latest weather observations for WA | Other Formats
Station Details ID: 009178 Name: GINGIN AERO Lat: -31.46 Lon: 115.86 Height: 73.0 m
Data from the previous 72 hours. | See also: Recent months at Gingin Airport
Date/Time
WST
Temp
°C
App
Temp
°C
Dew
Point
Rel
Hum
%
Delta-T
°C
Wind Press
QNH
hPa
Press
MSL
hPa
Rain
since 9 am
mm
Dir
 
Spd
km/h
Gust
km/h
Spd
kts
Gust
kts
04/09:30am 13.1 9.4 7.8 70 2.6 E 17 20 9 11 1033.4 1033.4 0.0
04/09:00am 12.1 8.8 8.2 77 1.9 ENE 15 20 8 11 1033.2 1033.2 0.0
04/08:30am 10.8 7.5 8.2 84 1.3 E 15 17 8 9 1033.3 1033.3 0.0
04/08:00am 9.4 7.0 8.5 94 0.4 E 11 15 6 8 1033.1 1033.1 0.0
04/07:30am 7.9 4.9 7.9 100 0.0 E 13 15 7 8 1033.1 1033.1 0.0
04/07:00am 7.6 4.6 7.6 100 0.0 E 13 15 7 8 1032.7 1032.7 0.0
04/06:30am 7.9 5.5 7.1 95 0.4 E 9 11 5 6 1032.6 1032.6 0.0
04/06:00am 8.3 5.3 7.7 96 0.3 E 13 15 7 8 1032.3 1032.3 0.0
04/05:30am 8.6 5.6 7.8 95 0.4 E 13 17 7 9 1032.2 1032.2 0.0
04/05:00am 8.8 5.1 7.9 94 0.4 E 17 17 9 9 1032.0 1032.0 0.0
04/04:30am 8.7 5.8 8.3 97 0.2 ESE 13 19 7 10 1032.2 1032.2 0.0
04/04:00am 8.5 5.9 7.9 96 0.3 ESE 11 15 6 8 1032.2 1032.2 0.0
04/03:30am 8.2 5.3 8.2 100 0.0 SE 13 15 7 8 1032.1 1032.1 0.0
04/03:00am 8.7 5.8 8.1 96 0.3 ESE 13 17 7 9 1032.1 1032.1 0.0
04/02:30am 8.3 5.1 8.3 100 0.0 ESE 15 19 8 10 1031.9 1031.9 0.0
04/02:00am 7.5 4.5 7.5 100 0.0 SE 13 15 7 8 1032.1 1032.1 0.0
04/01:30am 7.5 4.1 7.5 100 0.0 SE 15 15 8 8 1032.1 1032.1 0.0
04/01:00am 8.0 5.0 7.9 99 0.0 ESE 13 17 7 9 1032.0 1032.0 0.0
04/12:30am 8.3 5.8 8.2 99 0.0 ESE 11 13 6 7 1032.1 1032.1 0.0
04/12:00am 8.6 5.4 8.3 98 0.1 ESE 15 15 8 8 1032.2 1032.2 0.0
 
Date/Time
WST
Temp
°C
App
Temp
°C
Dew
Point
Rel
Hum
%
Delta-T
°C
Wind Press
QNH
hPa
Press
MSL
hPa
Rain
since 9 am
mm
Dir
 
Spd
km/h
Gust
km/h
Spd
kts
Gust
kts
03/11:30pm 8.0 5.0 7.9 99 0.0 ESE 13 15 7 8 1032.5 1032.5 0.0
03/11:00pm 8.5 5.9 7.6 94 0.4 ESE 11 13 6 7 1032.8 1032.8 0.0
03/10:30pm 9.2 6.7 8.0 92 0.6 ESE 11 13 6 7 1033.0 1033.0 0.0
03/10:00pm 9.4 6.9 8.0 91 0.7 ESE 11 13 6 7 1033.2 1033.2 0.0
03/09:30pm 9.6 7.0 7.9 89 0.8 ESE 11 13 6 7 1033.3 1033.3 0.0
03/09:00pm 10.1 7.2 8.2 88 0.9 ESE 13 15 7 8 1033.3 1033.3 0.0
03/08:30pm 10.3 7.4 8.2 87 1.0 ESE 13 13 7 7 1033.1 1033.1 0.0
03/08:00pm 10.5 7.9 7.9 84 1.2 ESE 11 13 6 7 1033.0 1033.0 0.0
03/07:30pm 11.2 9.0 7.9 80 1.6 ESE 9 13 5 7 1032.8 1032.8 0.0
03/07:00pm 11.8 9.2 7.9 77 1.9 ESE 11 13 6 7 1032.5 1032.5 0.0
03/06:30pm 12.4 9.4 7.9 74 2.2 ESE 13 15 7 8 1032.3 1032.3 0.0
03/06:00pm 13.1 9.7 7.8 70 2.6 ESE 15 17 8 9 1032.2 1032.2 0.0
03/05:30pm 13.9 10.6 7.9 67 3.0 ESE 15 19 8 10 1032.1 1032.1 0.0
03/05:00pm 14.7 10.6 7.7 63 3.5 E 19 22 10 12 1032.1 1032.1 0.0
03/04:30pm 15.4 11.3 7.7 60 3.9 ESE 19 24 10 13 1031.9 1031.9 0.0
03/04:00pm 15.9 11.2 7.7 58 4.1 ESE 22 32 12 17 1032.0 1032.0 0.0
03/03:30pm 16.3 12.0 7.8 57 4.3 ESE 20 26 11 14 1032.0 1032.0 0.0
03/03:00pm 16.3 12.6 8.0 58 4.2 ESE 17 26 9 14 1032.3 1032.3 0.0
03/02:30pm 16.2 12.4 7.7 57 4.3 ESE 17 20 9 11 1032.5 1032.5 0.0
03/02:00pm 16.6 12.7 7.3 54 4.6 E 17 24 9 13 1032.4 1032.4 0.0
03/01:30pm 16.5 12.2 7.2 54 4.6 E 19 32 10 17 1032.6 1032.6 0.0
03/01:00pm 16.3 11.9 6.4 52 4.8 E 19 26 10 14 1032.7 1032.7 0.0
03/12:30pm 16.1 12.1 6.5 53 4.7 ENE 17 26 9 14 1033.3 1033.3 0.0
03/12:00pm 15.9 11.3 6.6 54 4.5 ENE 20 30 11 16 1033.8 1033.8 0.0
03/11:30am 15.7 10.6 6.2 53 4.6 NE 22 30 12 16 1034.1 1034.1 0.0
03/11:00am 15.4 10.5 6.7 56 4.2 ENE 22 32 12 17 1034.6 1034.6 0.0
03/10:30am 14.3 10.5 7.6 64 3.3 ENE 17 22 9 12 1034.8 1034.8 0.0
03/10:00am 13.1 10.3 8.4 73 2.3 E 13 19 7 10 1034.8 1034.8 0.0
03/09:30am 11.4 8.4 7.9 79 1.7 E 13 19 7 10 1035.0 1035.0 0.0
03/09:00am 10.1 8.2 9.0 93 0.5 SE 9 15 5 8 1034.9 1034.9 0.0
03/08:30am 8.7 7.1 8.7 100 0.0 SE 7 9 4 5 1034.8 1034.8 0.0
03/08:00am 6.7 3.8 6.7 100 0.0 SE 11 13 6 7 1034.6 1034.6 0.0
03/07:30am 5.2 2.0 5.2 100 0.0 SE 11 13 6 7 1034.4 1034.4 0.0
03/07:00am 3.7 1.2 3.7 100 0.0 SE 6 7 3 4 1033.8 1033.8 0.0
03/06:30am 4.6 0.9 4.6 100 0.0 SE 13 15 7 8 1033.5 1033.5 0.0
03/06:00am 4.9 1.3 4.9 100 0.0 SE 13 15 7 8 1033.2 1033.2 0.0
03/05:30am 4.9 0.9 4.9 100 0.0 SE 15 17 8 9 1033.0 1033.0 0.0
03/05:00am 4.5 1.2 4.5 100 0.0 SE 11 17 6 9 1033.1 1033.1 0.0
03/04:30am 2.9 0.2 2.9 100 0.0 SE 6 7 3 4 1033.3 1033.3 0.0
03/04:00am 3.3 0.5 3.3 100 0.0 SE 7 13 4 7 1033.4 1033.4 0.0
03/03:30am 3.8 -0.8 3.8 100 0.0 SSE 17 19 9 10 1033.4 1033.4 0.0
03/03:00am 2.8 -0.8 2.8 100 0.0 E 11 15 6 8 1033.5 1033.5 0.0
03/02:30am 2.8 0.1 2.8 100 0.0 E 6 9 3 5 1033.8 1033.8 0.0
03/02:00am 2.6 -0.7 2.6 100 0.0 E 9 11 5 6 1034.2 1034.2 0.0
03/01:30am 1.8 -1.2 1.8 100 0.0 E 7 9 4 5 1034.4 1034.4 0.0
03/01:00am 2.5 -0.8 2.5 100 0.0 E 9 13 5 7 1034.1 1034.1 0.0
03/12:30am 2.9 0.2 2.9 100 0.0 E 6 7 3 4 1034.0 1034.0 0.0
03/12:00am 2.9 0.1 2.9 100 0.0 E 7 7 4 4 1033.9 1033.9 0.0
 
Date/Time
WST
Temp
°C
App
Temp
°C
Dew
Point
Rel
Hum
%
Delta-T
°C
Wind Press
QNH
hPa
Press
MSL
hPa
Rain
since 9 am
mm
Dir
 
Spd
km/h
Gust
km/h
Spd
kts
Gust
kts
02/11:30pm 3.1 1.6 3.1 100 0.0 CALM 0 2 0 1 1034.0 1034.0 0.0
02/11:00pm 4.1 1.7 4.1 100 0.0 E 6 7 3 4 1033.9 1033.9 0.0
02/10:30pm 3.7 0.6 3.7 100 0.0 E 9 11 5 6 1034.0 1034.0 0.0
02/10:00pm 4.7 2.4 4.7 100 0.0 E 6 7 3 4 1034.2 1034.2 0.0
02/09:30pm 5.3 2.9 5.3 100 0.0 E 7 7 4 4 1034.4 1034.4 0.0
02/09:00pm 5.3 4.2 5.3 100 0.0 CALM 0 0 0 0 1034.4 1034.4 0.0
02/08:30pm 5.1 4.0 5.0 99 0.0 CALM 0 0 0 0 1034.3 1034.3 0.0
02/08:00pm 5.9 4.8 5.2 95 0.3 CALM 0 0 0 0 1034.1 1034.1 0.0
02/07:30pm 8.0 5.8 6.1 88 0.9 E 7 9 4 5 1033.8 1033.8 0.0
02/07:00pm 8.9 6.3 6.2 83 1.2 E 9 11 5 6 1033.6 1033.6 0.0
02/06:30pm 9.8 7.2 6.2 78 1.7 E 9 9 5 5 1033.5 1033.5 0.0
02/06:00pm 11.2 8.2 6.1 71 2.4 E 11 13 6 7 1033.1 1033.1 0.0
02/05:30pm 12.8 8.6 5.9 63 3.3 E 17 20 9 11 1032.9 1032.9 0.0
02/05:00pm 13.9 9.4 6.0 59 3.7 E 19 24 10 13 1032.4 1032.4 0.0
02/04:30pm 14.4 9.2 5.7 56 4.1 E 22 28 12 15 1032.2 1032.2 0.0
02/04:00pm 15.0 10.2 5.5 53 4.5 E 20 28 11 15 1032.0 1032.0 0.0
02/03:30pm 15.0 9.4 5.5 53 4.5 E 24 32 13 17 1031.8 1031.8 0.0
02/03:00pm 15.0 9.4 5.2 52 4.6 E 24 32 13 17 1031.6 1031.6 0.0
02/02:30pm 15.1 9.6 5.9 54 4.4 E 24 30 13 16 1031.7 1031.7 0.0
02/02:00pm 14.6 9.3 4.9 52 4.5 ENE 22 30 12 16 1031.8 1031.8 0.0
02/01:30pm 14.8 9.6 5.6 54 4.4 ENE 22 30 12 16 1032.0 1032.0 0.0
02/01:00pm 14.4 9.1 5.2 54 4.3 E 22 32 12 17 1032.2 1032.2 0.0
02/12:30pm 14.4 9.5 5.2 54 4.3 E 20 30 11 16 1032.8 1032.8 0.0
02/12:00pm 13.9 9.0 5.0 55 4.1 ESE 20 30 11 16 1033.4 1033.4 0.0
02/11:30am 13.6 8.0 5.3 57 3.9 E 24 33 13 18 1033.7 1033.7 0.0
02/11:00am 13.0 6.9 4.7 57 3.8 ESE 26 33 14 18 1033.9 1033.9 0.0
02/10:30am 12.6 7.0 5.3 61 3.4 E 24 37 13 20 1034.0 1034.0 0.0
02/10:00am 11.8 7.0 5.7 66 2.8 ESE 20 30 11 16 1034.0 1034.0 0.0
02/09:30am 10.8 6.1 5.3 69 2.5 ESE 19 24 10 13 1034.2 1034.2 0.0
02/09:00am 9.6 5.9 6.3 80 1.5 SE 15 20 8 11 1033.9 1033.9 0.0
02/08:30am 7.6 4.9 7.3 98 0.1 SE 11 13 6 7 1033.7 1033.7 0.0
02/08:00am 5.2 2.0 5.2 100 0.0 SE 11 13 6 7 1033.3 1033.3 0.0
02/07:30am 3.5 0.4 3.5 100 0.0 SSE 9 11 5 6 1033.0 1033.0 0.0
02/07:00am 3.0 -0.6 3.0 100 0.0 SSE 11 13 6 7 1032.6 1032.6 0.0
02/06:30am 3.4 -0.1 3.4 100 0.0 SSE 11 13 6 7 1032.3 1032.3 0.0
02/06:00am 3.9 -0.3 3.9 100 0.0 SSE 15 17 8 9 1032.0 1032.0 0.0
02/05:30am 3.1 -0.9 3.1 100 0.0 SE 13 15 7 8 1031.7 1031.7 0.0
02/05:00am 3.1 -0.5 3.1 100 0.0 SE 11 15 6 8 1031.6 1031.6 0.0
02/04:30am 3.7 1.0 3.7 100 0.0 SE 7 9 4 5 1031.5 1031.5 0.0
02/04:00am 4.5 1.8 3.5 93 0.4 SSE 7 11 4 6 1031.3 1031.3 0.0
02/03:30am 6.4 2.7 4.7 89 0.7 SSE 13 17 7 9 1031.0 1031.1 0.0
02/03:00am 6.6 2.5 4.6 87 0.9 SSE 15 17 8 9 1030.6 1030.7 0.0
02/02:30am 7.2 2.8 5.0 86 1.0 SSE 17 20 9 11 1030.6 1030.7 0.0
02/02:00am 6.8 3.2 5.0 88 0.8 SSE 13 15 7 8 1030.7 1030.8 0.0
02/01:30am 6.7 3.1 5.0 89 0.7 SSE 13 15 7 8 1030.8 1030.9 0.0
02/01:00am 6.8 3.5 4.6 86 0.9 SSE 11 17 6 9 1030.7 1030.8 0.0
02/12:30am 7.5 3.9 5.0 84 1.1 SSE 13 17 7 9 1030.3 1030.4 0.0
02/12:00am 7.4 4.2 5.2 86 1.0 SSE 11 15 6 8 1030.4 1030.5 0.0
 
Date/Time
WST
Temp
°C
App
Temp
°C
Dew
Point
Rel
Hum
%
Delta-T
°C
Wind Press
QNH
hPa
Press
MSL
hPa
Rain
since 9 am
mm
Dir
 
Spd
km/h
Gust
km/h
Spd
kts
Gust
kts
01/11:30pm 7.3 4.4 4.9 85 1.1 SSE 9 11 5 6 1030.3 1030.4 0.0
01/11:00pm 8.0 4.8 4.9 81 1.4 SSE 11 13 6 7 1030.0 1030.1 0.0
01/10:30pm 8.6 5.0 5.0 78 1.6 SSE 13 17 7 9 1029.9 1030.0 0.0
01/10:00pm 9.2 5.6 5.0 75 1.9 SSE 13 19 7 10 1029.8 1029.9 0.0
01/09:30pm 9.5 5.9 5.1 74 2.0 SSE 13 15 7 8 1029.6 1029.7 0.0
01/09:00pm 10.9 7.3 5.2 68 2.6 SE 13 19 7 10 1029.4 1029.5 0.0
01/08:30pm 12.1 7.8 5.3 63 3.2 SE 17 26 9 14 1029.2 1029.3 0.0
01/08:00pm 12.4 7.8 5.6 63 3.2 ESE 19 24 10 13 1028.7 1028.8 0.0
01/07:30pm 12.8 8.0 5.5 61 3.4 ESE 20 30 11 16 1028.3 1028.4 0.0
01/07:00pm 13.6 8.8 5.7 59 3.7 SE 20 30 11 16 1027.8 1027.9 0.0
01/06:30pm 13.5 9.5 6.6 63 3.3 ESE 17 28 9 15 1027.4 1027.5 0.0
01/06:00pm 13.9 8.5 6.5 61 3.5 ESE 24 32 13 17 1026.7 1026.7 0.0
01/05:30pm 13.9 8.6 6.7 62 3.5 ESE 24 30 13 16 1026.3 1026.3 0.0
01/05:00pm 14.3 9.9 7.4 63 3.4 ESE 20 28 11 15 1026.1 1026.1 0.0
01/04:30pm 14.7 10.1 8.0 64 3.4 SE 22 30 12 16 1025.7 1025.7 0.0
01/04:00pm 15.1 10.0 7.6 61 3.7 ESE 24 32 13 17 1025.2 1025.2 0.0
01/03:30pm 15.0 9.5 7.5 61 3.7 SE 26 35 14 19 1024.9 1024.9 0.0
01/03:00pm 16.0 11.9 8.7 62 3.7 ESE 20 28 11 15 1024.2 1024.2 0.0
01/02:30pm 15.8 11.2 8.3 61 3.8 ESE 22 30 12 16 1023.8 1023.8 0.0
01/02:00pm 15.3 9.9 8.1 62 3.6 SE 26 37 14 20 1023.8 1023.8 0.0
01/01:30pm 15.5 9.8 8.3 62 3.6 SE 28 41 15 22 1023.8 1023.8 0.0
01/01:00pm 15.0 9.7 8.3 64 3.4 ESE 26 39 14 21 1023.8 1023.8 0.0
01/12:30pm 15.0 10.2 8.9 67 3.1 ESE 24 33 13 18 1024.0 1024.0 0.0
01/12:00pm 14.6 9.0 8.8 68 2.9 SE 28 39 15 21 1024.2 1024.2 0.0
01/11:30am 14.9 8.9 8.6 66 3.2 ESE 30 43 16 23 1024.1 1024.1 0.0
01/11:00am 14.5 9.4 9.3 71 2.7 ESE 26 37 14 20 1024.1 1024.1 0.0
01/10:52am 14.4 8.6 9.4 72 2.6 SE 30 48 16 26 1024.0 1024.0 0.0
01/10:30am 14.0 7.8 9.4 74 2.4 ESE 32 41 17 22 1024.1 1024.1 0.0
01/10:00am 14.1 8.6 9.3 73 2.4 SE 28 39 15 21 1023.7 1023.7 0.0

Other Formats:

Comma delimited format used in spreadsheet applications
http://www.bom.gov.au/fwo/IDW60801/IDW60801.95612.axf

JavaScript Object Notation format (JSON) in row-major order
http://www.bom.gov.au/fwo/IDW60801/IDW60801.95612.json